Terminal Aerodrome Forecast
Issued by NWS

Home | Current Version | Previous Version | Graphics & Text | Print | Product List | Glossary On
Versions: 1 2 3 4 5 6 7 8 9 10 11 12 13 14
751
FTUS43 KICT 192320
TAFRSL
TAF
KRSL 192320Z 2000/2024 17015G24KT P6SM SCT015
     FM200500 17015KT 5SM -SHRA BR OVC015
     FM201000 19010KT P6SM SCT025
     FM201600 33017G25KT P6SM SKC=

USA.gov is the U.S. government's official web portal to all federal, state and local government web resources and services.